Time;durP1;ratioP1;P1;durP2;ratioP2;P2;SDS_P1;SDS_P2;PMS_P1;PMS_P2;Temp;Humidity;BMP_temperature;BMP_pressure;BME280_temperature;BME280_humidity;BME280_pressure;Samples;Min_cycle;Max_cycle;Signal;HPM_P1;HPM_P2
2021/08/24 00:01:35;;;;;;;3.42;2.30;;;25.30;96.70;;;;;;4955108;28;20122;-82
2021/08/24 00:04:04;;;;;;;5.25;2.53;;;25.20;96.70;;;;;;4952988;28;20047;-82
2021/08/24 00:06:32;;;;;;;4.90;2.33;;;25.00;96.70;;;;;;4959345;28;20115;-82
2021/08/24 00:09:01;;;;;;;3.50;2.30;;;24.90;96.70;;;;;;4959673;28;20475;-82
2021/08/24 00:11:33;;;;;;;2.78;2.10;;;24.80;96.70;;;;;;4951741;28;20606;-82
2021/08/24 00:14:02;;;;;;;3.80;1.90;;;24.70;96.70;;;;;;4950061;28;20042;-83
2021/08/24 00:16:33;;;;;;;2.85;2.50;;;24.60;96.70;;;;;;4951128;28;20043;-82
2021/08/24 00:19:01;;;;;;;2.30;2.10;;;24.80;96.70;;;;;;4956824;28;20065;-83
2021/08/24 00:21:30;;;;;;;2.42;2.00;;;24.90;96.70;;;;;;4949073;28;20564;-83
2021/08/24 00:23:58;;;;;;;2.47;2.28;;;25.00;96.70;;;;;;4961000;28;20051;-83
2021/08/24 00:26:26;;;;;;;3.80;2.50;;;25.00;96.70;;;;;;4959760;28;20550;-83
2021/08/24 00:28:55;;;;;;;3.50;2.15;;;25.00;96.70;;;;;;4956058;28;20042;-83
2021/08/24 00:31:23;;;;;;;3.17;2.40;;;24.90;96.70;;;;;;4951817;28;20105;-83
2021/08/24 00:33:53;;;;;;;2.80;2.30;;;24.90;96.70;;;;;;4957725;28;20146;-83
2021/08/24 00:36:21;;;;;;;3.05;2.15;;;24.90;96.70;;;;;;4955542;28;20318;-83
2021/08/24 00:38:50;;;;;;;2.80;2.20;;;25.10;96.70;;;;;;4959977;28;20039;-84
2021/08/24 00:41:19;;;;;;;2.50;2.30;;;25.10;96.70;;;;;;4949325;28;20047;-84
2021/08/24 00:43:49;;;;;;;5.10;2.58;;;25.10;96.70;;;;;;4952416;28;20092;-83
2021/08/24 00:46:30;;;;;;;3.63;2.40;;;25.00;96.70;;;;;;4954709;28;20089;-83
2021/08/24 00:49:05;;;;;;;4.30;2.47;;;24.90;96.70;;;;;;4953393;28;20040;-83
2021/08/24 00:51:37;;;;;;;2.40;2.20;;;24.70;96.70;;;;;;4963499;28;20059;-82
2021/08/24 00:54:06;;;;;;;3.50;1.95;;;24.60;96.70;;;;;;4954955;28;20042;-85
2021/08/24 00:56:35;;;;;;;2.95;2.35;;;24.80;96.70;;;;;;4955927;28;20041;-85
2021/08/24 00:59:04;;;;;;;4.40;2.08;;;24.90;96.70;;;;;;4959991;28;20061;-86
2021/08/24 01:01:32;;;;;;;4.03;2.53;;;25.00;96.70;;;;;;4961550;28;20062;-86
2021/08/24 01:04:03;;;;;;;2.70;2.25;;;25.00;96.70;;;;;;4974678;28;20043;-85
2021/08/24 01:06:38;;;;;;;2.53;2.10;;;25.00;96.70;;;;;;4962273;28;20050;-84
2021/08/24 01:09:25;;;;;;;4.40;2.60;;;24.90;96.70;;;;;;4962001;28;20421;-85
2021/08/24 01:12:03;;;;;;;2.75;2.05;;;24.90;96.70;;;;;;4957617;28;20050;-85
2021/08/24 01:14:42;;;;;;;2.40;2.20;;;24.90;96.70;;;;;;4951950;28;20058;-85
2021/08/24 01:17:17;;;;;;;3.85;2.00;;;24.80;96.70;;;;;;4952925;28;20523;-86
2021/08/24 01:20:25;;;;;;;2.83;2.53;;;25.00;96.70;;;;;;4948188;28;20106;-86
2021/08/24 01:23:11;;;;;;;;;;;25.10;96.70;;;;;;4949887;28;20081;-85
2021/08/24 01:25:45;;;;;;;4.05;2.17;;;25.10;96.70;;;;;;4959794;28;19973;-85
2021/08/24 01:28:20;;;;;;;2.95;1.83;;;25.00;96.70;;;;;;4952052;28;20046;-85
2021/08/24 01:31:10;;;;;;;3.60;2.13;;;25.00;96.70;;;;;;4955206;28;21183;-86
2021/08/24 01:33:44;;;;;;;2.80;2.10;;;25.00;96.70;;;;;;4951584;28;20074;-85
2021/08/24 01:36:19;;;;;;;3.75;2.28;;;25.00;96.70;;;;;;4959229;28;20066;-85
2021/08/24 01:39:01;;;;;;;2.67;2.00;;;25.00;96.70;;;;;;4954692;28;20149;-84
2021/08/24 01:41:48;;;;;;;4.75;2.67;;;25.00;96.70;;;;;;4952903;28;20134;-85
2021/08/24 01:44:18;;;;;;;;;;;25.00;96.70;;;;;;4957188;28;20563;-85
2021/08/24 01:46:53;;;;;;;2.88;2.20;;;24.90;96.70;;;;;;4951917;28;19981;-85
2021/08/24 01:49:29;;;;;;;4.18;2.13;;;24.90;96.70;;;;;;4953634;28;20097;-85
2021/08/24 01:52:08;;;;;;;4.35;2.00;;;24.90;96.70;;;;;;4955531;28;20109;-85
2021/08/24 01:54:42;;;;;;;5.43;2.42;;;24.80;96.70;;;;;;4948910;28;20141;-85
2021/08/24 01:57:17;;;;;;;3.90;1.90;;;24.70;96.70;;;;;;4948033;28;20051;-85
2021/08/24 01:59:50;;;;;;;3.30;2.10;;;24.70;96.70;;;;;;4952114;28;20109;-85
2021/08/24 02:02:25;;;;;;;3.60;2.17;;;24.70;96.70;;;;;;4952964;28;20043;-85
2021/08/24 02:04:59;;;;;;;3.35;2.55;;;24.80;96.70;;;;;;4947175;28;20474;-88
2021/08/24 02:07:33;;;;;;;5.22;2.58;;;24.80;96.70;;;;;;4953670;28;20085;-87
2021/08/24 02:10:07;;;;;;;3.83;2.10;;;24.70;96.70;;;;;;4974860;28;20053;-87
2021/08/24 02:12:39;;;;;;;3.35;2.47;;;24.60;96.70;;;;;;4955130;28;20050;-87
2021/08/24 02:15:09;;;;;;;3.15;2.40;;;24.40;96.70;;;;;;4961539;28;20602;-86
2021/08/24 02:17:42;;;;;;;2.83;2.50;;;24.30;96.70;;;;;;4951617;28;20056;-87
2021/08/24 02:20:16;;;;;;;4.45;2.30;;;24.20;96.70;;;;;;4993735;28;20069;-87
2021/08/24 02:22:50;;;;;;;6.70;3.03;;;24.30;96.70;;;;;;4959550;28;20055;-88
2021/08/24 02:25:22;;;;;;;4.20;2.47;;;24.30;96.70;;;;;;4952080;28;20070;-87
2021/08/24 02:27:56;;;;;;;5.35;2.83;;;24.30;96.70;;;;;;4955811;28;20051;-86
2021/08/24 02:30:25;;;;;;;3.88;2.40;;;24.40;96.70;;;;;;4950434;28;20050;-88
2021/08/24 02:32:54;;;;;;;3.75;2.50;;;24.40;96.70;;;;;;4956961;28;20038;-88
2021/08/24 02:35:29;;;;;;;3.08;2.45;;;24.30;96.70;;;;;;4953060;28;20055;-89
2021/08/24 02:38:04;;;;;;;4.57;2.63;;;24.30;96.70;;;;;;4956961;28;20306;-83
2021/08/24 02:40:43;;;;;;;4.45;2.30;;;24.10;96.70;;;;;;4948712;28;20051;-83
2021/08/24 02:43:19;;;;;;;2.80;2.22;;;24.20;96.70;;;;;;4987908;28;20654;-82
2021/08/24 02:45:54;;;;;;;3.92;2.42;;;24.20;96.70;;;;;;4951523;28;20047;-83
2021/08/24 02:48:24;;;;;;;3.30;2.35;;;24.20;96.70;;;;;;4952865;28;20508;-82
2021/08/24 02:54:44;;;;;;;3.22;2.53;;;24.10;96.70;;;;;;4949885;28;20883;-82
2021/08/24 02:57:14;;;;;;;3.13;2.58;;;24.10;96.70;;;;;;4956233;28;20051;-83
2021/08/24 02:59:43;;;;;;;5.05;2.83;;;24.20;96.70;;;;;;4951078;28;20074;-82
2021/08/24 03:02:13;;;;;;;4.10;2.50;;;24.30;96.70;;;;;;4957714;28;20054;-83
2021/08/24 03:05:00;;;;;;;2.95;2.25;;;24.30;96.70;;;;;;4951044;28;20386;-83
2021/08/24 03:07:32;;;;;;;5.03;2.13;;;24.30;96.70;;;;;;4971218;28;20054;-82
2021/08/24 03:10:07;;;;;;;3.78;2.03;;;24.30;96.70;;;;;;4950993;28;20046;-82
2021/08/24 03:16:25;;;;;;;3.17;2.25;;;24.30;96.70;;;;;;4955476;28;20035;-83
2021/08/24 03:19:10;;;;;;;2.80;2.22;;;24.10;96.70;;;;;;4954118;28;20047;-83
2021/08/24 03:21:39;;;;;;;4.35;2.80;;;24.00;96.70;;;;;;4958415;28;20039;-84
2021/08/24 03:24:10;;;;;;;3.85;2.50;;;24.00;96.70;;;;;;4966291;28;20074;-84
2021/08/24 03:26:42;;;;;;;3.42;2.58;;;24.10;96.70;;;;;;4951505;28;20054;-84
2021/08/24 03:29:13;;;;;;;4.78;2.80;;;24.10;96.70;;;;;;4951771;28;20567;-83
2021/08/24 03:31:43;;;;;;;4.00;2.70;;;24.20;96.70;;;;;;4972296;28;20047;-83
2021/08/24 03:34:11;;;;;;;4.43;2.60;;;24.10;96.70;;;;;;4950631;28;20046;-83
2021/08/24 03:36:39;;;;;;;3.47;2.53;;;23.80;96.70;;;;;;4956099;28;20126;-83
2021/08/24 03:39:07;;;;;;;3.90;2.42;;;23.80;96.70;;;;;;4949141;28;20067;-84
2021/08/24 03:41:35;;;;;;;3.92;2.42;;;23.70;96.70;;;;;;4957709;28;20571;-84
2021/08/24 03:44:05;;;;;;;4.20;2.75;;;23.70;96.70;;;;;;4960101;28;20035;-84
2021/08/24 03:46:34;;;;;;;5.07;2.70;;;23.70;96.70;;;;;;4958548;28;20978;-84
2021/08/24 03:49:03;;;;;;;4.07;2.38;;;23.70;96.70;;;;;;4954805;28;20047;-84
2021/08/24 03:51:31;;;;;;;3.35;2.30;;;23.70;96.70;;;;;;4952246;28;20081;-84
2021/08/24 03:53:59;;;;;;;4.95;2.72;;;23.80;96.70;;;;;;4953566;28;20140;-84
2021/08/24 03:56:27;;;;;;;4.57;2.92;;;23.80;96.70;;;;;;4961533;28;20042;-83
2021/08/24 03:58:56;;;;;;;3.40;2.22;;;23.80;96.70;;;;;;4953744;28;20035;-82
2021/08/24 04:01:25;;;;;;;5.35;2.70;;;23.70;96.70;;;;;;4961953;28;20043;-83
2021/08/24 04:03:54;;;;;;;3.38;2.30;;;23.60;96.70;;;;;;4958734;28;20576;-83
2021/08/24 04:06:22;;;;;;;3.58;2.60;;;23.60;96.70;;;;;;4958280;28;20039;-83
2021/08/24 04:08:50;;;;;;;5.07;2.83;;;23.70;96.70;;;;;;4953319;28;20497;-83
2021/08/24 04:11:18;;;;;;;4.82;2.55;;;23.70;96.70;;;;;;4969304;28;20505;-83
2021/08/24 04:13:46;;;;;;;4.47;2.60;;;23.80;96.70;;;;;;4970453;28;20047;-83
2021/08/24 04:16:15;;;;;;;3.90;2.60;;;23.90;96.70;;;;;;4956725;28;20110;-84
2021/08/24 04:18:45;;;;;;;2.67;2.13;;;24.00;96.70;;;;;;4954814;28;20194;-83
2021/08/24 04:21:18;;;;;;;6.07;2.95;;;24.00;96.70;;;;;;4953752;28;20053;-84
2021/08/24 04:23:48;;;;;;;3.40;2.90;;;23.90;96.70;;;;;;4958026;28;20149;-83
2021/08/24 04:26:18;;;;;;;3.33;2.70;;;23.90;96.70;;;;;;4938710;28;20063;-84
2021/08/24 04:28:48;;;;;;;3.38;2.65;;;23.90;96.70;;;;;;4957487;28;20078;-83
2021/08/24 04:31:18;;;;;;;3.05;2.60;;;23.90;96.70;;;;;;4961152;28;20057;-82
2021/08/24 04:33:50;;;;;;;2.28;2.08;;;23.90;96.70;;;;;;4963475;28;20069;-83
2021/08/24 04:36:19;;;;;;;4.72;2.80;;;23.90;96.70;;;;;;4961913;28;20053;-83
2021/08/24 04:38:49;;;;;;;3.25;2.53;;;23.90;96.70;;;;;;4964774;28;20070;-86
2021/08/24 04:41:18;;;;;;;4.53;2.70;;;23.90;96.70;;;;;;4962716;28;20118;-85
2021/08/24 04:43:48;;;;;;;4.18;2.67;;;23.90;96.70;;;;;;4958446;28;20047;-84
2021/08/24 04:46:17;;;;;;;3.20;2.90;;;23.90;96.70;;;;;;4946829;28;20047;-84
2021/08/24 04:48:49;;;;;;;3.00;2.63;;;23.80;96.70;;;;;;4956599;28;20054;-84
2021/08/24 04:51:18;;;;;;;3.45;2.95;;;23.80;96.70;;;;;;4966870;28;20053;-85
2021/08/24 04:54:40;;;;;;;3.50;3.00;;;23.70;96.70;;;;;;4963023;28;20043;-84
2021/08/24 04:57:08;;;;;;;3.45;2.45;;;23.70;96.70;;;;;;4952359;28;20054;-83
2021/08/24 04:59:36;;;;;;;3.67;2.83;;;23.90;96.70;;;;;;4946762;28;20109;-84
2021/08/24 05:02:04;;;;;;;3.63;3.05;;;24.00;96.70;;;;;;4965723;28;20046;-84
2021/08/24 05:04:34;;;;;;;3.03;2.75;;;24.00;96.70;;;;;;4969930;28;20050;-85
2021/08/24 05:07:03;;;;;;;4.55;3.30;;;24.00;96.70;;;;;;4962660;28;20509;-83
2021/08/24 05:09:31;;;;;;;4.15;2.80;;;24.00;96.70;;;;;;4962971;28;20134;-85
2021/08/24 05:12:00;;;;;;;3.67;2.75;;;24.10;96.70;;;;;;4954516;28;20442;-85
2021/08/24 05:14:28;;;;;;;5.55;2.85;;;24.10;96.70;;;;;;4966849;28;20047;-84
2021/08/24 05:16:57;;;;;;;3.63;2.50;;;24.10;96.70;;;;;;4965062;28;20603;-84
2021/08/24 05:19:26;;;;;;;5.05;3.72;;;24.20;96.70;;;;;;4960666;28;20069;-85
2021/08/24 05:21:56;;;;;;;9.07;4.45;;;24.20;96.70;;;;;;4967010;28;20608;-84
2021/08/24 05:24:25;;;;;;;7.03;5.03;;;24.20;96.70;;;;;;4968585;28;20047;-84
2021/08/24 05:26:53;;;;;;;11.15;5.85;;;24.10;96.70;;;;;;4946792;28;20106;-85
2021/08/24 05:29:22;;;;;;;6.53;4.97;;;24.20;96.70;;;;;;4959588;28;20772;-85
2021/08/24 05:31:50;;;;;;;7.15;5.50;;;24.20;96.70;;;;;;4966464;28;20038;-85
2021/08/24 05:34:18;;;;;;;9.82;5.28;;;24.20;96.70;;;;;;4966895;28;20398;-84
2021/08/24 05:36:46;;;;;;;6.15;4.78;;;24.10;96.70;;;;;;4971334;28;20163;-84
2021/08/24 05:39:16;;;;;;;5.55;4.55;;;24.20;96.70;;;;;;4966306;28;20159;-84
2021/08/24 05:41:44;;;;;;;4.18;3.42;;;24.30;96.70;;;;;;4962460;28;20051;-84
2021/08/24 05:44:12;;;;;;;3.80;3.17;;;24.30;96.70;;;;;;4963786;28;20094;-84
2021/08/24 05:46:40;;;;;;;6.65;4.00;;;24.30;96.70;;;;;;4957470;28;20070;-84
2021/08/24 05:49:09;;;;;;;12.05;3.78;;;24.40;96.70;;;;;;4966855;28;20045;-84
2021/08/24 05:51:38;;;;;;;16.00;4.05;;;24.50;96.70;;;;;;4947938;28;20061;-84
2021/08/24 05:54:07;;;;;;;20.67;4.47;;;24.60;96.70;;;;;;4951496;28;20053;-85
2021/08/24 05:56:36;;;;;;;14.85;3.45;;;24.70;96.70;;;;;;4964565;28;20292;-81
2021/08/24 05:59:04;;;;;;;7.05;3.30;;;24.70;96.70;;;;;;4958413;28;20097;-80
2021/08/24 06:01:33;;;;;;;5.70;2.50;;;24.80;96.70;;;;;;4957404;28;20529;-81
2021/08/24 06:04:02;;;;;;;4.57;2.83;;;24.80;96.70;;;;;;5002555;28;20114;-86
2021/08/24 06:06:32;;;;;;;4.05;2.95;;;24.80;96.70;;;;;;4978045;28;20078;-80
2021/08/24 06:09:04;;;;;;;4.03;2.75;;;24.80;96.70;;;;;;4961293;28;20038;-80
2021/08/24 06:11:34;;;;;;;3.90;2.50;;;24.90;96.70;;;;;;4959054;28;20102;-83
2021/08/24 06:14:06;;;;;;;4.70;2.70;;;25.00;96.70;;;;;;4967628;28;20531;-85
2021/08/24 06:16:35;;;;;;;3.35;2.55;;;25.10;96.70;;;;;;4962508;28;20054;-85
2021/08/24 06:19:04;;;;;;;5.10;2.58;;;25.10;96.70;;;;;;4970993;28;20053;-85
2021/08/24 06:21:33;;;;;;;3.55;2.65;;;25.20;96.70;;;;;;4966650;28;20101;-83
2021/08/24 06:24:02;;;;;;;7.68;2.67;;;25.20;96.70;;;;;;4956485;28;20073;-81
2021/08/24 06:26:30;;;;;;;4.78;3.72;;;25.30;96.70;;;;;;4965366;28;20078;-82
2021/08/24 06:28:58;;;;;;;8.90;2.83;;;25.30;96.70;;;;;;4962679;28;20045;-82
2021/08/24 06:31:30;;;;;;;12.73;3.75;;;25.20;96.70;;;;;;4964371;28;20497;-83
2021/08/24 06:34:00;;;;;;;9.13;3.05;;;25.30;96.70;;;;;;4959841;28;20051;-81
2021/08/24 06:36:29;;;;;;;8.23;3.03;;;25.30;96.70;;;;;;4949221;28;20046;-83
2021/08/24 06:38:57;;;;;;;5.60;2.90;;;25.40;96.70;;;;;;4965822;28;20054;-82
2021/08/24 06:41:25;;;;;;;2.95;2.58;;;25.40;96.70;;;;;;4947575;28;20106;-84
2021/08/24 06:43:53;;;;;;;4.88;2.65;;;25.50;96.70;;;;;;4967195;28;20039;-82
2021/08/24 06:46:21;;;;;;;5.22;2.53;;;25.60;96.70;;;;;;4961403;28;20098;-81
2021/08/24 06:48:50;;;;;;;3.75;2.20;;;25.70;96.70;;;;;;4958167;28;20133;-83
2021/08/24 06:51:18;;;;;;;2.53;2.22;;;25.80;96.70;;;;;;4964205;28;20129;-82
2021/08/24 06:53:46;;;;;;;3.20;2.40;;;25.90;96.70;;;;;;4967200;28;20036;-82
2021/08/24 06:56:14;;;;;;;5.88;2.53;;;26.00;96.70;;;;;;4961891;28;20117;-81
2021/08/24 06:58:44;;;;;;;2.78;2.20;;;26.00;96.70;;;;;;4946158;28;20043;-81
2021/08/24 07:01:14;;;;;;;8.23;2.83;;;26.00;96.70;;;;;;4963362;28;20378;-81
2021/08/24 07:03:43;;;;;;;5.13;2.75;;;26.10;96.70;;;;;;4961526;28;20039;-81
2021/08/24 07:06:13;;;;;;;4.22;2.40;;;26.10;96.70;;;;;;4963845;28;20408;-82
2021/08/24 07:08:41;;;;;;;5.82;2.80;;;26.10;96.70;;;;;;4975947;28;20043;-83
2021/08/24 07:11:09;;;;;;;8.27;2.72;;;26.20;96.70;;;;;;4977753;28;20483;-83
2021/08/24 07:13:39;;;;;;;4.40;2.55;;;26.20;96.70;;;;;;4980396;28;20053;-81
2021/08/24 07:16:09;;;;;;;2.97;2.33;;;26.20;96.70;;;;;;4980347;28;20046;-82
2021/08/24 07:18:38;;;;;;;3.08;2.30;;;26.20;96.70;;;;;;4969666;28;20058;-83
2021/08/24 07:21:06;;;;;;;3.30;2.20;;;26.20;96.70;;;;;;4977223;28;20098;-84
2021/08/24 07:23:35;;;;;;;4.28;2.35;;;26.20;96.70;;;;;;4962254;28;20063;-83
2021/08/24 07:26:04;;;;;;;2.67;2.33;;;26.20;96.70;;;;;;4970514;28;20065;-83
2021/08/24 07:28:32;;;;;;;2.58;1.92;;;26.20;96.70;;;;;;4962713;28;20043;-83
2021/08/24 07:31:00;;;;;;;2.40;2.17;;;26.20;96.70;;;;;;4963881;28;20049;-84
2021/08/24 07:33:28;;;;;;;7.35;2.47;;;26.30;96.70;;;;;;4961336;28;20047;-82
2021/08/24 07:35:56;;;;;;;4.50;2.63;;;26.30;96.70;;;;;;4965789;28;20512;-82
2021/08/24 07:38:25;;;;;;;3.35;2.03;;;26.30;96.70;;;;;;4967053;28;20050;-83
2021/08/24 07:40:55;;;;;;;5.07;3.20;;;26.30;96.70;;;;;;4965428;28;20051;-82
2021/08/24 07:43:24;;;;;;;24.70;5.18;;;26.30;96.70;;;;;;4955152;28;20039;-83
2021/08/24 07:45:52;;;;;;;7.53;2.92;;;26.40;96.70;;;;;;4948177;28;20046;-83
2021/08/24 07:48:20;;;;;;;8.30;3.10;;;26.50;96.70;;;;;;4964506;28;20042;-82
2021/08/24 07:50:48;;;;;;;5.13;2.63;;;26.50;96.70;;;;;;4973520;28;20882;-82
2021/08/24 07:53:17;;;;;;;2.28;2.05;;;26.50;96.70;;;;;;4958016;28;20092;-82
2021/08/24 07:55:45;;;;;;;2.88;2.00;;;26.60;96.70;;;;;;4987605;28;20529;-82
2021/08/24 07:58:14;;;;;;;2.10;1.67;;;26.60;96.70;;;;;;4961078;28;20121;-82
2021/08/24 08:00:42;;;;;;;4.95;2.35;;;26.50;96.70;;;;;;4963726;28;20055;-82
2021/08/24 08:03:11;;;;;;;2.50;1.50;;;26.50;96.70;;;;;;4963593;28;20043;-83
2021/08/24 08:05:40;;;;;;;2.85;1.60;;;26.60;96.70;;;;;;4971156;28;20067;-82
2021/08/24 08:08:08;;;;;;;2.70;1.77;;;26.70;96.70;;;;;;4971312;28;20054;-83
2021/08/24 08:10:37;;;;;;;1.98;1.77;;;26.90;96.30;;;;;;4965799;28;20043;-84
2021/08/24 08:13:06;;;;;;;2.80;1.83;;;26.90;95.40;;;;;;4958515;28;20125;-85
2021/08/24 08:15:36;;;;;;;3.60;1.63;;;26.90;95.00;;;;;;4968285;28;20060;-84
2021/08/24 08:18:06;;;;;;;3.15;1.77;;;26.90;95.00;;;;;;4966053;28;20085;-82
2021/08/24 08:20:44;;;;;;;1.67;1.58;;;26.90;95.00;;;;;;4964493;28;20078;-83
2021/08/24 08:23:14;;;;;;;2.63;1.60;;;27.00;95.50;;;;;;4992228;28;20042;-84
2021/08/24 08:25:42;;;;;;;2.75;1.67;;;27.20;94.60;;;;;;4970284;28;20067;-84
2021/08/24 08:28:11;;;;;;;2.00;1.70;;;27.20;94.90;;;;;;4979919;28;20146;-83
2021/08/24 08:30:44;;;;;;;4.10;1.90;;;27.20;94.70;;;;;;4979583;28;20153;-84
2021/08/24 08:33:12;;;;;;;3.25;1.80;;;27.20;94.40;;;;;;4972369;28;20042;-83
2021/08/24 08:35:41;;;;;;;5.45;1.92;;;27.30;94.00;;;;;;4962517;28;20126;-83
2021/08/24 08:38:09;;;;;;;1.55;1.40;;;27.30;94.00;;;;;;4967536;28;20535;-83
2021/08/24 08:40:47;;;;;;;2.47;1.63;;;27.30;93.60;;;;;;4961336;28;20057;-83
2021/08/24 08:43:33;;;;;;;3.58;1.88;;;27.30;93.50;;;;;;4954888;28;20656;-83
2021/08/24 08:46:10;;;;;;;2.15;1.67;;;27.40;93.90;;;;;;4958702;28;20048;-83
2021/08/24 08:48:48;;;;;;;3.28;1.50;;;27.50;93.20;;;;;;4960285;28;20046;-83
2021/08/24 08:51:31;;;;;;;2.42;1.80;;;27.60;92.90;;;;;;4946251;28;20042;-82
2021/08/24 08:54:07;;;;;;;3.53;1.58;;;27.60;92.20;;;;;;4964006;28;20145;-83
2021/08/24 08:56:44;;;;;;;2.58;1.83;;;27.80;92.30;;;;;;4961002;28;20113;-82
2021/08/24 08:59:15;;;;;;;2.17;1.58;;;27.90;91.60;;;;;;4965085;28;20047;-83
2021/08/24 09:01:57;;;;;;;1.80;1.45;;;28.00;90.70;;;;;;4967146;28;20039;-83
2021/08/24 09:04:30;;;;;;;2.15;1.40;;;28.00;89.60;;;;;;4959099;28;20162;-82
2021/08/24 09:07:03;;;;;;;3.17;1.65;;;28.10;89.40;;;;;;4963101;28;20058;-84
2021/08/24 09:09:33;;;;;;;3.03;1.60;;;28.30;89.10;;;;;;4962324;28;20665;-81
2021/08/24 09:12:02;;;;;;;2.20;1.55;;;28.40;89.60;;;;;;4964951;28;20069;-82
2021/08/24 09:14:34;;;;;;;2.85;1.52;;;28.40;88.80;;;;;;4959993;28;20043;-82
2021/08/24 09:17:13;;;;;;;1.88;1.40;;;28.40;88.50;;;;;;4958775;28;20504;-82
2021/08/24 09:19:48;;;;;;;1.58;1.35;;;28.50;89.20;;;;;;4965203;28;20046;-84
2021/08/24 09:22:18;;;;;;;2.73;1.67;;;28.60;88.50;;;;;;4951354;28;20110;-84
2021/08/24 09:24:47;;;;;;;2.50;2.30;;;28.70;89.00;;;;;;4959958;28;20329;-84
2021/08/24 09:27:25;;;;;;;3.47;2.30;;;28.90;88.50;;;;;;4960145;28;20097;-84
2021/08/24 09:29:53;;;;;;;4.20;1.90;;;28.80;88.30;;;;;;4959582;28;20035;-84
2021/08/24 09:32:26;;;;;;;3.58;1.90;;;28.90;88.00;;;;;;4964945;28;20042;-82
2021/08/24 09:35:06;;;;;;;3.88;2.40;;;28.90;87.80;;;;;;4950463;28;20055;-83
2021/08/24 09:37:38;;;;;;;3.50;1.98;;;28.90;88.00;;;;;;4946470;28;20129;-83
2021/08/24 09:40:09;;;;;;;2.72;2.10;;;28.70;87.70;;;;;;4965467;28;20108;-84
2021/08/24 09:42:41;;;;;;;2.47;1.98;;;28.60;88.40;;;;;;4963381;28;20046;-83
2021/08/24 09:45:26;;;;;;;3.33;1.95;;;28.60;88.10;;;;;;4976836;28;20047;-83
2021/08/24 09:48:08;;;;;;;3.03;1.90;;;28.40;88.00;;;;;;4957981;28;20063;-82
2021/08/24 09:50:40;;;;;;;2.38;1.73;;;28.40;88.50;;;;;;4957410;28;20049;-82
2021/08/24 09:53:30;;;;;;;2.50;1.70;;;28.50;88.50;;;;;;4943943;28;20559;-83
2021/08/24 09:56:00;;;;;;;2.85;1.75;;;28.70;88.30;;;;;;4957730;28;20063;-83
2021/08/24 09:58:33;;;;;;;1.83;1.65;;;28.80;87.80;;;;;;4957451;28;21322;-83
2021/08/24 10:01:05;;;;;;;3.25;1.63;;;28.90;87.70;;;;;;4948159;28;20145;-84
2021/08/24 10:03:38;;;;;;;5.13;2.00;;;29.10;86.90;;;;;;4959760;28;20117;-83
2021/08/24 10:06:21;;;;;;;1.95;1.60;;;29.10;86.60;;;;;;4959694;28;20046;-82
2021/08/24 10:08:54;;;;;;;2.22;1.80;;;29.20;85.90;;;;;;4962895;28;20047;-85
2021/08/24 10:11:28;;;;;;;2.05;1.42;;;29.30;85.70;;;;;;4965135;28;20137;-85
2021/08/24 10:14:09;;;;;;;2.42;1.55;;;29.40;85.40;;;;;;4982415;28;20039;-85
2021/08/24 10:16:40;;;;;;;1.63;1.20;;;29.60;85.20;;;;;;4966158;28;20047;-83
2021/08/24 10:19:17;;;;;;;4.63;1.60;;;29.80;84.80;;;;;;4962514;28;20058;-83
2021/08/24 10:21:53;;;;;;;2.00;1.30;;;29.80;84.00;;;;;;4958794;28;20046;-83
2021/08/24 10:24:30;;;;;;;1.90;1.40;;;29.70;83.10;;;;;;4939367;28;20079;-83
2021/08/24 10:27:04;;;;;;;2.55;1.52;;;29.90;83.30;;;;;;4958823;28;20046;-83
2021/08/24 10:29:34;;;;;;;2.45;1.80;;;30.00;83.60;;;;;;4957924;28;20078;-84
2021/08/24 10:32:06;;;;;;;2.15;1.50;;;30.20;82.70;;;;;;4954669;28;20043;-84
2021/08/24 10:34:40;;;;;;;4.13;1.77;;;30.20;82.50;;;;;;4963090;28;20386;-83
2021/08/24 10:37:32;;;;;;;1.77;1.30;;;30.30;82.40;;;;;;4974434;28;20051;-83
2021/08/24 10:40:24;;;;;;;2.50;1.60;;;30.20;80.70;;;;;;4963576;28;20077;-84
2021/08/24 10:43:05;;;;;;;2.17;1.20;;;30.20;81.60;;;;;;4944912;28;20113;-84
2021/08/24 10:45:35;;;;;;;3.65;1.02;;;30.30;80.90;;;;;;4959083;28;20234;-83
2021/08/24 10:48:08;;;;;;;1.58;1.00;;;30.60;79.70;;;;;;4968593;28;20057;-84
2021/08/24 10:50:47;;;;;;;2.47;1.00;;;30.70;79.60;;;;;;4973098;28;20075;-84
2021/08/24 10:53:30;;;;;;;1.20;0.80;;;31.00;77.70;;;;;;4957493;28;20063;-84
2021/08/24 10:56:07;;;;;;;2.10;1.02;;;31.50;76.50;;;;;;4958546;28;20129;-84
2021/08/24 10:58:40;;;;;;;1.45;0.88;;;31.80;76.50;;;;;;4977413;28;20073;-84
2021/08/24 11:01:19;;;;;;;1.52;0.70;;;31.70;75.90;;;;;;4958186;28;20042;-84
2021/08/24 11:04:15;;;;;;;3.38;0.93;;;31.90;75.20;;;;;;4979162;28;20058;-83
2021/08/24 11:06:55;;;;;;;1.00;0.88;;;32.10;75.30;;;;;;4948531;28;20060;-83
2021/08/24 11:09:31;;;;;;;2.55;0.98;;;32.00;75.40;;;;;;4963367;28;20137;-84
2021/08/24 11:12:19;;;;;;;2.25;1.38;;;31.90;74.90;;;;;;4962215;28;20097;-84
2021/08/24 11:14:59;;;;;;;1.55;1.20;;;31.50;75.80;;;;;;4959641;28;20058;-84
2021/08/24 11:17:41;;;;;;;2.08;1.13;;;31.20;76.60;;;;;;4964803;28;20047;-84
2021/08/24 11:20:20;;;;;;;1.90;1.15;;;31.30;77.00;;;;;;4964807;28;20501;-83
2021/08/24 11:23:05;;;;;;;1.25;1.08;;;31.40;77.20;;;;;;4968286;28;20054;-83
2021/08/24 11:25:41;;;;;;;1.25;0.90;;;31.40;76.10;;;;;;4963514;28;20051;-83
2021/08/24 11:28:19;;;;;;;2.03;1.02;;;31.30;76.60;;;;;;4972964;28;20043;-83
2021/08/24 11:30:53;;;;;;;2.55;0.98;;;31.50;76.40;;;;;;4965489;28;20047;-83
2021/08/24 11:33:27;;;;;;;1.38;1.00;;;31.50;75.50;;;;;;4957108;28;20141;-83
2021/08/24 11:36:01;;;;;;;2.15;1.48;;;31.60;76.30;;;;;;4963986;28;20054;-84
2021/08/24 11:38:35;;;;;;;2.08;1.10;;;31.60;75.40;;;;;;4963827;28;20043;-84
2021/08/24 11:41:08;;;;;;;1.30;1.08;;;31.60;75.80;;;;;;4968137;28;20412;-84
2021/08/24 11:43:43;;;;;;;1.83;1.00;;;31.70;76.00;;;;;;4961337;28;20050;-84
2021/08/24 11:46:21;;;;;;;2.95;1.00;;;31.60;76.10;;;;;;4974642;28;20047;-84
2021/08/24 11:49:00;;;;;;;3.95;1.10;;;32.00;75.70;;;;;;4970188;28;20085;-85
2021/08/24 11:51:33;;;;;;;2.47;1.35;;;32.20;74.80;;;;;;4972484;28;20046;-84
2021/08/24 11:54:11;;;;;;;1.10;1.00;;;32.30;75.00;;;;;;4947278;28;20109;-85
2021/08/24 11:56:49;;;;;;;1.75;1.20;;;32.30;75.10;;;;;;4966983;28;20049;-84
2021/08/24 11:59:23;;;;;;;1.35;1.10;;;32.10;74.00;;;;;;4964384;28;20046;-84
2021/08/24 12:01:52;;;;;;;2.60;1.10;;;31.80;74.30;;;;;;4982980;28;20508;-84
2021/08/24 12:04:23;;;;;;;1.30;1.02;;;31.70;73.80;;;;;;4959550;28;20031;-83
2021/08/24 12:06:55;;;;;;;2.95;1.30;;;31.90;75.00;;;;;;4971398;28;20051;-79
2021/08/24 12:09:42;;;;;;;1.52;1.13;;;32.20;74.30;;;;;;4955117;28;20120;-81
2021/08/24 12:12:17;;;;;;;1.48;1.00;;;32.60;73.90;;;;;;4960486;28;20047;-80
2021/08/24 12:14:55;;;;;;;2.10;1.35;;;32.80;72.90;;;;;;4966506;28;20047;-84
2021/08/24 12:17:31;;;;;;;1.30;1.15;;;33.00;72.80;;;;;;4962978;28;20034;-80
2021/08/24 12:20:01;;;;;;;1.88;1.00;;;33.20;73.00;;;;;;4958487;28;20062;-80
2021/08/24 12:22:33;;;;;;;1.95;1.00;;;32.90;71.60;;;;;;4972597;28;20046;-80
2021/08/24 12:25:09;;;;;;;3.42;0.90;;;32.50;72.10;;;;;;4972493;28;20425;-83
2021/08/24 12:27:55;;;;;;;1.00;0.90;;;32.70;71.70;;;;;;4946981;28;20445;-83
2021/08/24 12:30:27;;;;;;;1.30;1.20;;;33.00;71.70;;;;;;4939246;28;20200;-83
2021/08/24 12:33:32;;;;;;;1.50;1.02;;;33.10;71.80;;;;;;4962349;28;20051;-83
2021/08/24 12:36:45;;;;;;;1.50;0.88;;;33.20;71.80;;;;;;4956743;28;20130;-82
2021/08/24 12:39:35;;;;;;;1.00;0.90;;;33.00;70.30;;;;;;4954313;28;20054;-84
2021/08/24 12:42:26;;;;;;;1.52;0.90;;;32.60;71.10;;;;;;4965266;28;20464;-83
2021/08/24 12:45:17;;;;;;;2.05;1.08;;;32.70;71.80;;;;;;4960507;28;20047;-83
2021/08/24 12:47:47;;;;;;;1.20;0.70;;;32.70;70.60;;;;;;4964177;28;20042;-83
2021/08/24 12:50:45;;;;;;;1.85;0.82;;;32.70;71.60;;;;;;4952945;28;20559;-83
2021/08/24 12:53:46;;;;;;;3.83;0.90;;;32.40;71.60;;;;;;4965934;28;20046;-82
2021/08/24 12:56:35;;;;;;;1.33;1.00;;;32.80;72.00;;;;;;4958258;28;20055;-83
2021/08/24 12:59:05;;;;;;;2.05;0.77;;;33.00;71.40;;;;;;4954377;28;20042;-82
2021/08/24 13:01:34;;;;;;;2.67;1.15;;;33.10;71.00;;;;;;4953627;28;20059;-82
2021/08/24 13:04:19;;;;;;;1.23;0.70;;;33.20;70.70;;;;;;4964398;28;20035;-81
2021/08/24 13:07:10;;;;;;;3.67;1.00;;;33.20;71.20;;;;;;4958518;28;20047;-82
2021/08/24 13:09:41;;;;;;;2.38;0.73;;;33.00;70.70;;;;;;4962065;28;20043;-82
2021/08/24 13:12:35;;;;;;;2.75;0.65;;;33.00;70.80;;;;;;4958147;28;20043;-82
2021/08/24 13:15:21;;;;;;;1.85;0.63;;;33.10;70.60;;;;;;4960135;28;20057;-82
2021/08/24 13:17:53;;;;;;;1.60;0.70;;;32.90;70.40;;;;;;4956199;28;20142;-82
2021/08/24 13:20:27;;;;;;;2.10;0.85;;;33.00;70.40;;;;;;4961558;28;20042;-82
2021/08/24 13:23:03;;;;;;;2.25;0.70;;;33.10;71.10;;;;;;4962900;28;20055;-82
2021/08/24 13:25:35;;;;;;;1.15;0.73;;;33.20;71.20;;;;;;4961183;28;20097;-82
2021/08/24 13:28:06;;;;;;;1.75;0.73;;;33.20;70.70;;;;;;4956130;28;20049;-81